Araujos, Brazil
Current Conditions -  °F | °C
As of 6:18 AM on Sunday 26 Oct 2014 (Local Time) from SBPR Reporting Station
Light Rain Light Rain  
Wind Chill: 64°   Ceiling: 7000
Heat Index: 64°   Visibility: 6mi
Dew Point: 61°   Wind: 3mph
Humidity: 88%   Direction: 180°S
Pressure: 30.03"   Gusts: NA
Location:  19.95°S, 45.17°W
Report Text: SBPR 260818Z 18003KT 9000 -RA FEW012 OVC070 18/16 Q1017
Loading
Personal Weather Stations






























Interactive Weather Map
Tropical Storm Tracking
New forecast layout! Learn more

10-Day Weather Forecast

Advertisements
Track Severe Weather on mobile